Harrisonburg, VA (22802)

8:37 AM EDT on May 25, 2015 (GMT -0400)
Singers Glen FD | | Change Station
CLOSE
Current Station
Personal Weather Station
Location: Harrisonburg, VA
Elevation: 1621 ft
Nearby Weather Stations

Elev 1621 ft 38.55 °N, 78.92 °W | Updated 19 seconds ago

Clear
Clear
64.4 °F
Feels Like 64.4 °F
N
4.0
Wind Variable Wind from WNW
Gusts 4.0 mph

Today
High -- | Low -- °F
--% Chance of Precip.
Yesterday
High -- | Low -- °F
Precip. -- in
5:57 AM 8:28 PM
Waxing Crescent, 48% visible
Pressure 30.31 in
Visibility 10.0 miles
Clouds Clear
Dew Point 57 °F
Humidity 76%
Rainfall 0.00 in
Snow Depth Not available.
UV 2 out of 12
Pollen 8.30 out of 12
Air Quality Not available.
Flu Activity No Activity
METAR KSHD 251155Z AUTO 20004KT 10SM CLR 18/13 A3031 RMK AO2 T01810126 10181 20116

More Conditions Fewer Conditions

Pressure 30.31 in
Visibility 10.0 miles
Clouds Clear
Dew Point 57 °F
Humidity 76%
Rainfall 0.00 in
Snow Depth Not available.
UV 2 out of 12
Pollen 8.30 out of 12
Air Quality Not available.
Flu Activity No Activity
METAR KSHD 251155Z AUTO 20004KT 10SM CLR 18/13 A3031 RMK AO2 T01810126 10181 20116

More Conditions Fewer Conditions

10-Day Weather Forecast

Almanac

Astronomy

May. 25, 2015 Rise Set
Actual Time
Civil Twilight
Nautical Twilight
Astronomical Twilight
Moon
Length of Visible Light
Length of Day
Tomorrow will be .
, % of the Moon is Illuminated

Today's Extremes

State Highs State Lows

Community

WunderPhotos

Upload Photos

1,823,986 photos uploaded!

WunderBlogs® & News

Nearby

Air Quality

  Air Quality AQ Index Pollutant
Not available.

Snow Depth

Station Depth Elevation

Earthquake Activity

City Distance Mag. Time & Date
Minimum magnitude displayed is 2.5.

Coastal Water Temperatures

Place Temperature

Stations

Nearby Weather Stations

Station Location Temp. Windchill Dew Point Humidity Wind Precip. Elev Updated Type